Time;durP1;ratioP1;P1;durP2;ratioP2;P2;SDS_P1;SDS_P2;PMS_P1;PMS_P2;Temp;Humidity;BMP_temperature;BMP_pressure;BME280_temperature;BME280_humidity;BME280_pressure;Samples;Min_cycle;Max_cycle;Signal;HPM_P1;HPM_P2
2022/12/07 00:01:06;;;;;;;4.47;1.00;;;3.70;99.90;;;;;;5087778;27;20028;-86
2022/12/07 00:03:32;;;;;;;6.95;0.82;;;3.70;99.90;;;;;;5101323;27;20640;-86
2022/12/07 00:05:59;;;;;;;9.50;1.00;;;4.90;99.90;;;;;;5123129;27;20031;-86
2022/12/07 00:08:25;;;;;;;4.63;0.85;;;3.80;99.90;;;;;;5083540;28;20042;-86
2022/12/07 00:10:51;;;;;;;3.40;0.90;;;3.80;99.90;;;;;;5107662;27;20035;-86
2022/12/07 00:13:17;;;;;;;2.43;0.60;;;4.10;99.90;;;;;;5130402;27;20066;-86
2022/12/07 00:15:42;;;;;;;3.03;0.80;;;3.70;99.90;;;;;;5125689;27;20044;-86
2022/12/07 00:18:08;;;;;;;7.60;0.82;;;3.70;99.90;;;;;;5122489;27;20067;-86
2022/12/07 00:20:34;;;;;;;5.40;1.17;;;4.90;99.90;;;;;;5127991;27;20035;-85
2022/12/07 00:23:00;;;;;;;5.43;1.10;;;5.10;99.90;;;;;;5122135;27;20281;-86
2022/12/07 00:25:26;;;;;;;5.23;1.00;;;4.30;99.90;;;;;;5102318;27;20035;-86
2022/12/07 00:27:56;;;;;;;4.45;1.00;;;3.70;99.90;;;;;;5112229;27;20285;-86
2022/12/07 00:30:22;;;;;;;7.45;1.15;;;3.60;99.90;;;;;;5089020;27;20120;-87
2022/12/07 00:32:49;;;;;;;5.63;0.90;;;4.50;99.90;;;;;;5127916;27;20058;-87
2022/12/07 00:35:15;;;;;;;2.15;0.70;;;3.60;99.90;;;;;;5116345;27;20043;-87
2022/12/07 00:37:40;;;;;;;3.40;0.85;;;3.60;99.90;;;;;;5087998;27;20045;-86
2022/12/07 00:40:07;;;;;;;4.53;0.70;;;3.60;99.90;;;;;;5101752;27;20069;-87
2022/12/07 00:42:33;;;;;;;6.25;0.93;;;3.60;99.90;;;;;;5079757;27;20097;-87
2022/12/07 00:44:59;;;;;;;10.55;1.17;;;3.50;99.90;;;;;;5060631;28;20059;-87
2022/12/07 00:47:25;;;;;;;5.00;1.17;;;3.50;99.90;;;;;;5102532;27;20471;-86
2022/12/07 00:49:50;;;;;;;2.70;0.70;;;4.80;99.90;;;;;;5107854;27;20074;-87
2022/12/07 00:52:16;;;;;;;6.20;1.23;;;3.50;99.90;;;;;;5102304;27;20508;-87
2022/12/07 00:54:41;;;;;;;5.87;1.00;;;3.40;99.90;;;;;;5095542;27;20483;-86
2022/12/07 00:57:07;;;;;;;5.57;0.80;;;4.80;99.90;;;;;;5110027;27;20035;-86
2022/12/07 00:59:33;;;;;;;5.40;0.90;;;3.60;99.90;;;;;;5063799;27;20353;-87
2022/12/07 01:01:59;;;;;;;5.03;0.93;;;3.70;99.90;;;;;;5079490;27;20331;-87
2022/12/07 01:04:24;;;;;;;3.30;0.87;;;4.40;99.90;;;;;;5085861;27;20296;-87
2022/12/07 01:06:50;;;;;;;2.75;0.77;;;4.30;99.90;;;;;;5088439;28;20066;-86
2022/12/07 01:09:16;;;;;;;9.80;1.00;;;3.90;99.90;;;;;;5062212;28;20451;-87
2022/12/07 01:11:41;;;;;;;2.07;0.70;;;4.20;99.90;;;;;;5124562;27;20032;-87
2022/12/07 01:14:09;;;;;;;5.25;0.93;;;4.00;99.90;;;;;;5078027;27;20270;-87
2022/12/07 01:16:34;;;;;;;5.20;0.80;;;4.80;99.90;;;;;;5119303;27;20539;-87
2022/12/07 01:19:01;;;;;;;4.38;0.85;;;4.10;99.90;;;;;;5102473;27;20114;-87
2022/12/07 01:21:32;;;;;;;2.17;0.65;;;4.10;99.90;;;;;;5123226;27;20039;-87
2022/12/07 01:23:58;;;;;;;3.03;0.73;;;4.10;99.90;;;;;;5119078;27;20051;-87
2022/12/07 01:26:24;;;;;;;2.63;0.88;;;4.10;99.90;;;;;;5103547;27;20415;-87
2022/12/07 01:28:51;;;;;;;9.50;0.95;;;5.30;99.90;;;;;;5117168;27;20113;-87
2022/12/07 01:31:19;;;;;;;3.20;0.77;;;4.20;99.90;;;;;;5106916;27;20058;-86
2022/12/07 01:33:48;;;;;;;5.43;0.70;;;4.10;99.90;;;;;;5110194;27;20063;-87
2022/12/07 01:36:21;;;;;;;3.05;0.60;;;4.10;99.90;;;;;;5104725;28;20051;-87
2022/12/07 01:38:51;;;;;;;3.00;0.70;;;4.10;99.90;;;;;;5094732;27;20137;-86
2022/12/07 01:41:17;;;;;;;6.47;0.90;;;4.10;99.90;;;;;;5123396;27;20148;-87
2022/12/07 01:44:16;;;;;;;6.03;0.63;;;4.20;99.90;;;;;;5107085;28;20498;-87
2022/12/07 01:46:45;;;;;;;2.95;0.77;;;4.20;99.90;;;;;;5125530;28;20031;-87
2022/12/07 01:49:18;;;;;;;6.57;0.70;;;4.90;99.90;;;;;;5094427;28;20027;-86
2022/12/07 01:51:46;;;;;;;9.70;1.00;;;4.20;99.90;;;;;;5101835;28;20036;-86
2022/12/07 01:54:14;;;;;;;6.75;1.05;;;4.10;99.90;;;;;;5118028;28;20028;-86
2022/12/07 01:56:45;;;;;;;3.80;0.80;;;4.00;99.90;;;;;;5119237;28;20059;-86
2022/12/07 01:59:11;;;;;;;5.95;1.08;;;4.70;99.90;;;;;;5097168;28;20031;-87
2022/12/07 02:01:37;;;;;;;8.68;0.98;;;3.90;99.90;;;;;;5111626;27;20118;-86
2022/12/07 02:04:03;;;;;;;8.85;0.85;;;4.20;99.90;;;;;;5060535;28;20043;-86
2022/12/07 02:06:29;;;;;;;6.80;0.80;;;3.90;99.90;;;;;;5123679;27;20067;-86
2022/12/07 02:08:55;;;;;;;5.55;0.80;;;3.90;99.90;;;;;;5076661;28;20036;-86
2022/12/07 02:11:22;;;;;;;10.85;1.00;;;4.70;99.90;;;;;;5102165;28;20054;-87
2022/12/07 02:13:48;;;;;;;5.00;0.82;;;4.90;99.90;;;;;;5106635;28;20031;-87
2022/12/07 02:16:19;;;;;;;3.40;1.10;;;3.80;99.90;;;;;;5058875;28;20063;-87
2022/12/07 02:19:35;;;;;;;4.93;1.00;;;3.80;99.90;;;;;;5107127;28;20093;-86
2022/12/07 02:22:24;;;;;;;4.30;1.00;;;3.80;99.90;;;;;;5017962;28;20125;-87
2022/12/07 02:25:14;;;;;;;5.38;1.77;;;3.80;99.90;;;;;;5117895;28;20051;-87
2022/12/07 02:27:47;;;;;;;4.00;0.85;;;3.70;99.90;;;;;;5096380;28;20039;-87
2022/12/07 02:30:17;;;;;;;6.22;2.05;;;4.90;99.90;;;;;;5096037;28;20132;-86
2022/12/07 02:32:46;;;;;;;6.47;1.08;;;3.70;99.90;;;;;;5115873;28;20518;-86
2022/12/07 02:35:19;;;;;;;8.85;1.40;;;3.70;99.90;;;;;;5101737;28;20052;-87
2022/12/07 02:37:55;;;;;;;5.35;1.15;;;3.70;99.90;;;;;;5116313;28;20097;-87
2022/12/07 02:40:33;;;;;;;7.38;1.08;;;3.70;99.90;;;;;;5115301;28;20035;-87
2022/12/07 02:43:06;;;;;;;5.32;1.35;;;4.10;99.90;;;;;;5121390;28;20133;-86
2022/12/07 02:45:34;;;;;;;6.93;0.90;;;5.10;99.90;;;;;;5098928;28;20114;-86
2022/12/07 02:48:02;;;;;;;6.22;0.80;;;4.20;99.90;;;;;;5103870;28;20197;-87
2022/12/07 02:50:28;;;;;;;3.15;0.65;;;4.10;99.90;;;;;;5104928;27;20386;-87
2022/12/07 02:52:54;;;;;;;6.97;0.90;;;5.20;99.90;;;;;;5112806;27;20119;-86
2022/12/07 02:55:25;;;;;;;5.78;1.00;;;5.80;99.90;;;;;;5108040;27;20476;-87
2022/12/07 02:58:22;;;;;;;5.57;0.90;;;5.70;99.90;;;;;;5107506;28;20077;-87
2022/12/07 03:01:17;;;;;;;8.18;0.82;;;4.30;99.90;;;;;;5122764;27;20035;-86
2022/12/07 03:03:49;;;;;;;5.55;0.63;;;4.30;99.90;;;;;;5129614;27;20152;-87
2022/12/07 03:06:22;;;;;;;4.90;1.13;;;4.30;99.90;;;;;;5105947;28;20071;-86
2022/12/07 03:09:14;;;;;;;5.03;0.80;;;4.30;99.90;;;;;;5121896;27;20390;-86
2022/12/07 03:12:09;;;;;;;2.55;0.60;;;4.40;99.90;;;;;;5123910;27;20039;-86
2022/12/07 03:14:49;;;;;;;1.77;0.80;;;4.70;99.90;;;;;;5121378;27;20518;-87
2022/12/07 03:17:25;;;;;;;4.60;0.68;;;4.40;99.90;;;;;;5117551;27;20087;-88
2022/12/07 03:19:56;;;;;;;5.38;0.70;;;4.40;99.90;;;;;;5116803;27;20027;-87
2022/12/07 03:22:23;;;;;;;2.38;0.85;;;4.50;99.90;;;;;;5108688;27;20038;-87
2022/12/07 03:25:02;;;;;;;2.83;0.60;;;4.60;99.90;;;;;;5122325;27;20120;-87
2022/12/07 03:27:33;;;;;;;1.88;0.50;;;4.90;99.90;;;;;;5105763;27;20504;-87
2022/12/07 03:30:07;;;;;;;3.55;0.65;;;4.60;99.90;;;;;;5102396;27;20059;-87
2022/12/07 03:32:44;;;;;;;2.10;0.47;;;4.60;99.90;;;;;;5126147;27;20047;-88
2022/12/07 03:35:25;;;;;;;4.22;0.52;;;4.60;99.90;;;;;;5104459;27;20051;-87
2022/12/07 03:37:56;;;;;;;3.08;0.80;;;4.50;99.90;;;;;;5126264;27;20031;-87
2022/12/07 03:40:30;;;;;;;3.88;0.60;;;4.40;99.90;;;;;;5126116;27;20042;-87
2022/12/07 03:42:59;;;;;;;2.80;0.57;;;4.40;99.90;;;;;;5108204;28;20046;-87
2022/12/07 03:45:41;;;;;;;6.40;1.00;;;5.30;99.90;;;;;;5087481;27;20031;-87
2022/12/07 03:48:27;;;;;;;6.70;1.10;;;4.20;99.90;;;;;;5127163;27;20491;-87
2022/12/07 03:51:20;;;;;;;6.90;0.70;;;4.20;99.90;;;;;;5104872;27;20068;-87
2022/12/07 03:54:08;;;;;;;8.23;0.80;;;4.10;99.90;;;;;;5124559;27;21624;-86
2022/12/07 03:56:37;;;;;;;3.75;0.82;;;4.20;99.90;;;;;;5097828;27;20046;-87
2022/12/07 03:59:03;;;;;;;4.53;0.80;;;4.10;99.90;;;;;;5121728;27;20046;-87
2022/12/07 04:01:29;;;;;;;4.70;1.33;;;4.90;99.90;;;;;;5102457;27;20062;-87
2022/12/07 04:03:54;;;;;;;5.33;1.10;;;4.10;99.90;;;;;;5083146;28;20571;-87
2022/12/07 04:06:20;;;;;;;12.00;1.10;;;4.00;99.90;;;;;;5061630;28;20055;-86
2022/12/07 04:08:46;;;;;;;3.27;0.90;;;4.00;99.90;;;;;;5103294;27;20288;-87
2022/12/07 04:11:11;;;;;;;3.83;0.95;;;3.90;99.90;;;;;;5120729;27;20096;-87
2022/12/07 04:14:18;;;;;;;2.50;0.63;;;4.80;99.90;;;;;;5108342;27;20077;-88
2022/12/07 04:16:23;;;;;;;4.28;0.70;;;3.80;99.90;;;;;;5128398;27;20529;-87
2022/12/07 04:18:48;;;;;;;3.20;0.70;;;3.80;99.90;;;;;;5123673;27;20039;-87
2022/12/07 04:21:14;;;;;;;3.03;0.80;;;3.70;99.90;;;;;;5110234;27;20265;-87
2022/12/07 04:23:40;;;;;;;5.30;0.70;;;3.60;99.90;;;;;;5107006;27;20073;-88
2022/12/07 04:26:05;;;;;;;6.63;0.63;;;3.60;99.90;;;;;;5108408;27;20127;-87
2022/12/07 04:28:31;;;;;;;7.90;1.50;;;4.20;99.90;;;;;;5126967;27;20039;-87
2022/12/07 04:30:57;;;;;;;4.80;0.67;;;4.20;99.90;;;;;;5100402;28;20361;-87
2022/12/07 04:33:22;;;;;;;5.13;0.90;;;4.50;99.90;;;;;;5126704;27;20036;-87
2022/12/07 04:35:48;;;;;;;9.93;0.90;;;3.40;99.90;;;;;;5121693;27;20225;-87
2022/12/07 04:38:14;;;;;;;4.57;0.80;;;4.50;99.90;;;;;;5105552;28;20277;-86
2022/12/07 04:40:39;;;;;;;5.50;0.70;;;4.60;99.90;;;;;;5078623;27;20046;-86
2022/12/07 04:43:05;;;;;;;6.30;0.97;;;3.30;99.90;;;;;;5065320;27;20142;-86
2022/12/07 04:45:31;;;;;;;5.22;0.93;;;4.70;99.90;;;;;;5104184;28;20035;-87
2022/12/07 04:47:56;;;;;;;5.40;1.00;;;4.70;99.90;;;;;;5123878;27;20384;-86
2022/12/07 04:50:22;;;;;;;5.97;0.80;;;3.70;99.90;;;;;;5100582;28;20396;-85
2022/12/07 04:52:50;;;;;;;4.05;0.90;;;3.80;99.90;;;;;;5099154;27;20047;-85
2022/12/07 04:55:16;;;;;;;3.53;0.83;;;3.40;99.90;;;;;;5080133;28;20475;-85
2022/12/07 04:57:41;;;;;;;4.40;1.38;;;3.40;99.90;;;;;;5104838;28;20277;-86
2022/12/07 05:00:08;;;;;;;4.47;0.70;;;4.80;99.90;;;;;;5062893;27;20063;-86
2022/12/07 05:02:33;;;;;;;7.78;1.52;;;3.50;99.90;;;;;;5077475;28;20043;-86
2022/12/07 05:04:59;;;;;;;10.00;1.47;;;4.00;99.90;;;;;;5099360;27;20043;-86
2022/12/07 05:07:25;;;;;;;3.50;1.10;;;3.60;99.90;;;;;;5116419;27;20363;-85
2022/12/07 05:09:50;;;;;;;4.67;0.80;;;4.20;99.90;;;;;;5063018;28;20035;-85
2022/12/07 05:12:16;;;;;;;6.80;1.23;;;3.30;99.90;;;;;;5122689;27;20046;-86
2022/12/07 05:14:42;;;;;;;3.37;1.13;;;3.30;99.90;;;;;;5091856;27;20287;-87
2022/12/07 05:17:07;;;;;;;6.90;0.93;;;4.00;99.90;;;;;;5088242;27;20035;-85
2022/12/07 05:19:33;;;;;;;5.97;0.93;;;3.20;99.90;;;;;;5121176;27;20281;-87
2022/12/07 05:21:59;;;;;;;2.90;0.83;;;4.30;99.90;;;;;;5087945;27;20039;-86
2022/12/07 05:24:24;;;;;;;6.23;1.17;;;3.00;99.90;;;;;;5104471;28;20470;-85
2022/12/07 05:26:50;;;;;;;2.75;0.77;;;3.50;99.90;;;;;;5079842;27;20039;-86
2022/12/07 05:29:17;;;;;;;2.70;0.90;;;3.80;99.90;;;;;;5081282;27;20037;-86
2022/12/07 05:31:43;;;;;;;;;;;4.00;99.90;;;;;;5110013;27;20346;-86
2022/12/07 05:34:09;;;;;;;11.38;1.75;;;2.70;99.90;;;;;;5099454;27;20310;-86
2022/12/07 05:36:36;;;;;;;5.72;1.27;;;2.60;99.90;;;;;;5060816;28;20036;-86
2022/12/07 05:39:01;;;;;;;7.65;1.05;;;4.00;99.90;;;;;;5099344;28;20043;-86
2022/12/07 05:44:11;;;;;;;4.40;0.82;;;2.50;99.90;;;;;;5103487;27;20043;-86
2022/12/07 05:46:37;;;;;;;3.40;0.60;;;3.90;99.90;;;;;;5110288;28;20525;-86
2022/12/07 05:49:03;;;;;;;4.25;1.00;;;3.00;99.90;;;;;;5098562;28;20027;-85
2022/12/07 05:51:29;;;;;;;4.95;0.95;;;2.60;99.90;;;;;;5088347;28;20053;-85
2022/12/07 05:53:54;;;;;;;4.90;0.88;;;3.30;99.90;;;;;;5063209;28;20066;-85
2022/12/07 05:56:20;;;;;;;3.17;0.90;;;4.00;99.90;;;;;;5101259;28;20034;-85
2022/12/07 06:01:30;;;;;;;5.65;1.00;;;2.60;99.90;;;;;;5085369;28;20039;-90
2022/12/07 06:03:56;;;;;;;4.53;0.88;;;2.70;99.90;;;;;;5105013;28;20487;-91
2022/12/07 06:06:21;;;;;;;5.07;0.90;;;2.50;99.90;;;;;;5101777;28;20504;-90
2022/12/07 06:08:47;;;;;;;7.57;0.75;;;4.00;99.90;;;;;;5123649;28;20040;-89
2022/12/07 06:13:57;;;;;;;5.63;1.05;;;3.90;99.90;;;;;;5129322;27;20289;-90
2022/12/07 06:16:22;;;;;;;6.10;1.03;;;2.40;99.90;;;;;;5113857;28;20061;-92
2022/12/07 06:18:48;;;;;;;7.45;1.48;;;3.40;99.90;;;;;;5110457;28;20346;-93
2022/12/07 06:21:14;;;;;;;8.50;1.53;;;4.00;99.90;;;;;;5107528;28;20100;-92
2022/12/07 06:23:40;;;;;;;4.50;1.30;;;2.70;99.90;;;;;;5128122;28;20276;-91
2022/12/07 06:26:05;;;;;;;2.70;1.10;;;2.80;99.90;;;;;;5104907;28;20749;-90
2022/12/07 06:28:31;;;;;;;8.38;1.92;;;2.90;99.90;;;;;;5106358;28;20406;-89
2022/12/07 06:31:07;;;;;;;8.53;2.37;;;3.00;99.90;;;;;;5099334;27;20407;-91
2022/12/07 06:33:32;;;;;;;5.03;1.25;;;3.80;99.90;;;;;;5108893;27;20300;-90
2022/12/07 06:35:58;;;;;;;5.50;1.10;;;4.20;99.90;;;;;;5093955;27;20406;-90
2022/12/07 06:38:24;;;;;;;1.77;0.80;;;3.20;99.90;;;;;;5088166;27;20031;-90
2022/12/07 06:40:52;;;;;;;6.28;0.90;;;3.10;99.90;;;;;;5084586;27;20290;-91
2022/12/07 06:43:18;;;;;;;7.75;0.77;;;3.10;99.90;;;;;;5059013;27;20046;-90
2022/12/07 06:45:44;;;;;;;8.18;0.93;;;3.00;99.90;;;;;;5083286;27;20043;-91
2022/12/07 06:48:09;;;;;;;5.63;1.10;;;3.00;99.90;;;;;;5094906;27;20082;-90
2022/12/07 06:50:35;;;;;;;3.55;0.82;;;2.90;99.90;;;;;;5106143;28;20044;-90
2022/12/07 06:53:01;;;;;;;3.47;1.05;;;4.30;99.90;;;;;;5128186;27;20043;-91
2022/12/07 06:55:27;;;;;;;4.82;0.90;;;4.30;99.90;;;;;;5062792;28;20043;-91
2022/12/07 06:57:52;;;;;;;8.27;1.20;;;2.70;99.90;;;;;;5095576;28;20952;-90
2022/12/07 07:00:18;;;;;;;4.37;1.00;;;2.60;99.90;;;;;;5123192;27;20036;-90
2022/12/07 07:02:44;;;;;;;2.17;0.80;;;2.60;99.90;;;;;;5116900;27;20360;-92
2022/12/07 07:05:10;;;;;;;4.93;0.80;;;3.30;99.90;;;;;;5065583;28;20063;-91
2022/12/07 07:07:35;;;;;;;4.38;0.98;;;3.80;99.90;;;;;;5087458;27;20039;-91
2022/12/07 07:10:01;;;;;;;5.40;1.37;;;3.30;99.90;;;;;;5062575;28;20082;-91
2022/12/07 07:12:27;;;;;;;2.70;0.77;;;3.10;99.90;;;;;;5084376;28;20123;-91
2022/12/07 07:14:53;;;;;;;6.03;0.90;;;3.80;99.90;;;;;;5086643;28;20035;-90
2022/12/07 07:17:18;;;;;;;4.82;1.02;;;3.80;99.90;;;;;;5105747;28;20303;-90
2022/12/07 07:19:44;;;;;;;4.18;1.02;;;2.60;99.90;;;;;;5116969;27;20188;-90
2022/12/07 07:22:10;;;;;;;6.57;1.75;;;3.30;99.90;;;;;;5107037;27;20051;-91
2022/12/07 07:24:38;;;;;;;6.43;1.43;;;2.80;99.90;;;;;;5068855;27;20128;-90
2022/12/07 07:27:04;;;;;;;9.48;1.45;;;2.80;99.90;;;;;;5101019;28;20276;-90
2022/12/07 07:29:30;;;;;;;9.87;1.40;;;2.90;99.90;;;;;;5061046;28;20036;-90
2022/12/07 07:31:56;;;;;;;4.93;1.40;;;4.00;99.90;;;;;;5117122;27;20579;-90
2022/12/07 07:34:21;;;;;;;3.60;1.40;;;3.00;99.90;;;;;;5063579;28;20075;-90
2022/12/07 07:36:47;;;;;;;7.22;1.50;;;2.90;99.90;;;;;;5086426;27;20049;-90
2022/12/07 07:39:13;;;;;;;2.95;1.38;;;3.00;99.90;;;;;;5088974;27;20084;-90
2022/12/07 07:41:39;;;;;;;7.72;1.77;;;3.00;99.90;;;;;;5061870;28;20028;-92
2022/12/07 07:44:04;;;;;;;4.63;1.50;;;2.90;99.90;;;;;;5082073;27;20090;-92
2022/12/07 07:46:31;;;;;;;4.35;1.20;;;2.90;99.90;;;;;;5106380;28;20036;-91
2022/12/07 07:48:56;;;;;;;4.68;1.10;;;3.70;99.90;;;;;;5107003;27;20039;-91
2022/12/07 07:51:22;;;;;;;1.73;0.60;;;3.60;99.90;;;;;;5118791;27;20184;-85
2022/12/07 07:53:48;;;;;;;5.00;0.87;;;2.70;99.90;;;;;;5079403;27;20440;-84
2022/12/07 07:56:13;;;;;;;1.73;0.77;;;2.80;99.90;;;;;;5058172;28;20055;-85
2022/12/07 07:58:39;;;;;;;6.93;0.93;;;2.60;99.90;;;;;;5059638;28;20281;-85
2022/12/07 08:01:08;;;;;;;2.58;0.90;;;2.50;99.90;;;;;;5119820;27;20031;-83
2022/12/07 08:03:35;;;;;;;3.70;0.80;;;2.50;99.90;;;;;;5095715;28;20475;-85
2022/12/07 08:06:01;;;;;;;;;;;2.40;99.90;;;;;;5104266;27;20050;-84
2022/12/07 08:08:27;;;;;;;4.07;0.80;;;2.40;99.90;;;;;;5095927;28;19923;-84
2022/12/07 08:10:53;;;;;;;6.17;1.10;;;2.50;99.90;;;;;;5115902;27;20031;-84
2022/12/07 08:13:18;;;;;;;3.17;1.30;;;2.50;99.90;;;;;;5110787;27;20564;-84
2022/12/07 08:15:46;;;;;;;4.50;0.87;;;2.50;99.90;;;;;;5107020;27;20327;-83
2022/12/07 08:18:13;;;;;;;10.00;1.20;;;2.70;99.90;;;;;;5115640;27;20031;-84
2022/12/07 08:20:39;;;;;;;5.35;1.20;;;2.80;99.90;;;;;;5098564;27;20134;-84
2022/12/07 08:23:06;;;;;;;3.72;1.00;;;3.10;99.90;;;;;;5118202;27;20039;-84
2022/12/07 08:25:33;;;;;;;6.88;1.05;;;3.90;99.90;;;;;;5103595;27;20499;-84
2022/12/07 08:28:00;;;;;;;5.75;0.90;;;4.20;99.90;;;;;;5102048;27;20517;-84
2022/12/07 08:30:26;;;;;;;6.28;0.90;;;4.80;99.90;;;;;;5114814;27;20106;-83
2022/12/07 08:32:52;;;;;;;;;;;5.10;99.90;;;;;;5086265;27;20398;-83
2022/12/07 08:35:18;;;;;;;5.50;1.15;;;5.60;99.90;;;;;;5092335;27;19972;-85
2022/12/07 08:37:44;;;;;;;4.90;0.90;;;6.00;99.90;;;;;;5118760;27;20043;-84
2022/12/07 08:40:15;;;;;;;4.40;0.90;;;6.30;99.90;;;;;;5087844;27;20035;-84
2022/12/07 08:42:42;;;;;;;3.63;0.80;;;6.40;99.90;;;;;;5079854;27;20046;-85
2022/12/07 08:45:10;;;;;;;4.80;0.93;;;6.40;99.90;;;;;;5100455;27;20039;-84
2022/12/07 08:47:48;;;;;;;5.05;1.05;;;6.50;99.90;;;;;;5097722;28;20039;-84
2022/12/07 08:50:14;;;;;;;7.50;1.13;;;6.60;99.90;;;;;;5119482;27;20070;-84
2022/12/07 08:52:41;;;;;;;7.15;1.17;;;6.20;99.90;;;;;;5099595;27;20035;-83
2022/12/07 08:55:09;;;;;;;7.10;1.30;;;6.10;99.90;;;;;;5095314;27;20936;-83
2022/12/07 08:57:35;;;;;;;8.13;1.15;;;6.20;99.90;;;;;;5117055;27;20417;-84
2022/12/07 09:00:01;;;;;;;;;;;6.50;99.90;;;;;;5098295;27;20398;-84
2022/12/07 09:02:27;;;;;;;5.82;1.08;;;6.40;99.90;;;;;;5102411;27;19923;-84
2022/12/07 09:04:53;;;;;;;8.80;1.17;;;6.60;99.90;;;;;;5094800;28;20049;-86
2022/12/07 09:07:18;;;;;;;5.33;1.13;;;7.00;99.90;;;;;;5121952;27;20491;-84
2022/12/07 09:09:44;;;;;;;5.87;1.20;;;7.00;99.90;;;;;;5118328;27;20043;-85
2022/12/07 09:12:10;;;;;;;3.70;0.73;;;8.40;99.90;;;;;;5103102;27;20035;-85
2022/12/07 09:14:36;;;;;;;5.78;1.30;;;8.40;99.90;;;;;;5063731;27;20618;-84
2022/12/07 09:17:10;;;;;;;5.68;1.08;;;8.40;99.90;;;;;;5096234;28;20092;-84
2022/12/07 09:19:36;;;;;;;6.15;1.27;;;7.70;99.90;;;;;;5119389;27;20083;-84
2022/12/07 09:22:02;;;;;;;4.85;1.00;;;8.90;99.90;;;;;;5087426;28;20043;-84
2022/12/07 09:24:28;;;;;;;7.13;1.10;;;8.10;99.90;;;;;;5097464;27;20126;-82
2022/12/07 09:26:53;;;;;;;7.87;1.43;;;8.50;99.90;;;;;;5114384;27;20035;-85
2022/12/07 09:29:19;;;;;;;5.78;1.05;;;8.90;99.90;;;;;;5112021;27;20035;-82
2022/12/07 09:31:45;;;;;;;2.40;0.63;;;8.70;99.90;;;;;;5071163;28;20058;-84
2022/12/07 09:34:10;;;;;;;5.20;0.80;;;8.30;99.90;;;;;;5110890;27;20139;-84
2022/12/07 09:36:36;;;;;;;4.63;0.93;;;7.90;99.90;;;;;;5099103;27;20039;-84
2022/12/07 09:39:04;;;;;;;5.75;0.90;;;7.50;99.90;;;;;;5075645;28;20280;-86
2022/12/07 09:41:31;;;;;;;4.75;1.17;;;7.10;99.90;;;;;;5120879;27;20429;-85
2022/12/07 09:44:06;;;;;;;9.15;1.48;;;6.60;99.90;;;;;;5085582;27;20126;-86
2022/12/07 09:46:37;;;;;;;6.32;0.85;;;6.30;99.90;;;;;;5104288;28;20031;-84
2022/12/07 09:49:05;;;;;;;2.83;0.80;;;6.20;99.90;;;;;;5110289;28;20043;-84
2022/12/07 09:51:31;;;;;;;6.40;0.90;;;6.10;99.90;;;;;;5078326;28;20039;-84
2022/12/07 09:53:59;;;;;;;6.55;0.90;;;5.70;99.90;;;;;;5092515;28;20046;-83
2022/12/07 09:56:25;;;;;;;9.30;1.13;;;5.70;99.90;;;;;;5098050;28;20039;-84
2022/12/07 09:59:00;;;;;;;8.40;0.80;;;5.90;99.90;;;;;;5114242;28;20486;-84
2022/12/07 10:01:30;;;;;;;5.65;0.93;;;5.70;99.90;;;;;;5097690;27;20039;-84
2022/12/07 10:04:01;;;;;;;2.85;0.82;;;5.70;99.90;;;;;;5096685;28;20101;-84
2022/12/07 10:06:27;;;;;;;4.60;1.55;;;5.70;99.90;;;;;;5125153;27;20118;-84
2022/12/07 10:08:53;;;;;;;6.95;1.00;;;5.60;99.90;;;;;;5088299;27;20243;-83
2022/12/07 10:11:18;;;;;;;5.27;0.90;;;5.60;99.90;;;;;;5103583;27;20488;-84
2022/12/07 10:13:48;;;;;;;4.32;0.80;;;6.40;99.90;;;;;;5084430;28;20099;-84
2022/12/07 10:16:36;;;;;;;4.68;0.90;;;5.70;99.90;;;;;;5101799;27;20169;-84
2022/12/07 10:19:22;;;;;;;3.65;0.98;;;6.10;99.90;;;;;;5119020;27;20067;-83
2022/12/07 10:22:15;;;;;;;4.38;1.10;;;6.80;99.90;;;;;;5117552;27;20039;-83
2022/12/07 10:24:42;;;;;;;9.82;1.42;;;7.90;99.90;;;;;;5118086;27;20028;-83
2022/12/07 10:27:26;;;;;;;6.40;1.10;;;8.30;99.90;;;;;;5091282;27;20114;-83
2022/12/07 10:29:53;;;;;;;6.80;1.02;;;8.30;99.90;;;;;;5102584;27;20036;-83
2022/12/07 10:32:18;;;;;;;10.68;1.20;;;8.40;99.90;;;;;;5118918;27;20625;-83
2022/12/07 10:34:47;;;;;;;6.32;0.82;;;8.30;99.90;;;;;;5101819;27;20051;-83
2022/12/07 10:37:15;;;;;;;6.60;1.20;;;8.70;99.90;;;;;;5060124;27;20031;-83
2022/12/07 10:39:49;;;;;;;6.60;1.23;;;9.10;99.90;;;;;;5101185;28;20366;-84
2022/12/07 10:42:18;;;;;;;7.82;1.00;;;9.80;99.90;;;;;;5114374;27;20032;-83
2022/12/07 10:44:45;;;;;;;2.80;0.85;;;10.50;99.90;;;;;;5116481;27;20071;-83
2022/12/07 10:47:29;;;;;;;5.80;1.08;;;11.10;99.90;;;;;;5102747;27;20399;-83
2022/12/07 10:50:48;;;;;;;7.07;1.20;;;11.60;99.90;;;;;;5104369;27;20043;-83
2022/12/07 10:53:38;;;;;;;4.47;0.70;;;11.70;99.90;;;;;;5060106;28;20037;-82
2022/12/07 10:56:38;;;;;;;7.93;1.00;;;11.70;99.90;;;;;;5115966;27;20127;-83
2022/12/07 10:59:39;;;;;;;4.75;0.90;;;11.30;99.90;;;;;;5116247;27;20032;-83
2022/12/07 11:02:13;;;;;;;4.63;0.93;;;10.60;99.90;;;;;;5103472;27;20082;-83
2022/12/07 11:05:03;;;;;;;4.35;0.93;;;9.70;99.90;;;;;;5128572;27;20054;-83
2022/12/07 11:07:45;;;;;;;6.70;1.35;;;9.30;99.90;;;;;;5123833;27;20038;-82
2022/12/07 11:10:39;;;;;;;7.15;0.68;;;8.30;99.90;;;;;;5119890;27;20054;-82
2022/12/07 11:13:14;;;;;;;7.38;1.52;;;7.50;99.90;;;;;;5124026;27;20035;-81
2022/12/07 11:15:46;;;;;;;4.75;0.80;;;6.80;99.90;;;;;;5113660;27;20055;-81
2022/12/07 11:18:26;;;;;;;4.00;0.90;;;6.40;99.90;;;;;;5116435;27;20558;-80
2022/12/07 11:21:05;;;;;;;8.32;0.82;;;6.10;99.90;;;;;;5099459;27;20497;-81
2022/12/07 11:23:47;;;;;;;4.40;0.80;;;5.80;99.90;;;;;;5100578;27;20123;-82
2022/12/07 11:26:44;;;;;;;4.45;0.52;;;5.80;99.90;;;;;;5099518;27;20035;-81
2022/12/07 11:29:27;;;;;;;1.60;0.80;;;5.80;99.90;;;;;;5122133;27;20036;-81
2022/12/07 11:32:01;;;;;;;4.65;1.02;;;5.80;99.90;;;;;;5110595;27;20043;-81
2022/12/07 11:34:35;;;;;;;2.63;0.50;;;6.00;99.90;;;;;;5097522;28;20055;-82
2022/12/07 11:37:04;;;;;;;2.72;0.70;;;6.40;99.90;;;;;;5115683;27;20125;-82
2022/12/07 11:39:39;;;;;;;2.83;0.50;;;6.80;99.90;;;;;;5105404;27;20044;-82
2022/12/07 11:42:19;;;;;;;1.55;0.63;;;7.10;99.90;;;;;;5115570;27;20047;-82
2022/12/07 11:44:47;;;;;;;2.63;0.63;;;7.40;99.90;;;;;;5122326;27;20449;-81
2022/12/07 11:47:20;;;;;;;1.25;0.40;;;7.50;99.90;;;;;;5118954;27;20111;-82
2022/12/07 11:49:53;;;;;;;2.65;0.52;;;7.80;99.90;;;;;;5119122;27;20039;-82
2022/12/07 11:52:49;;;;;;;3.55;0.60;;;8.00;99.90;;;;;;5099725;27;20043;-80
2022/12/07 11:55:52;;;;;;;5.20;0.68;;;9.00;99.90;;;;;;5098942;27;20066;-82
2022/12/07 11:58:33;;;;;;;1.77;0.63;;;8.50;99.90;;;;;;5117712;27;20044;-81
2022/12/07 12:01:11;;;;;;;1.45;0.50;;;8.70;99.90;;;;;;5105541;27;20443;-83
2022/12/07 12:03:42;;;;;;;4.22;0.93;;;8.90;99.90;;;;;;5099483;27;20075;-82
2022/12/07 12:06:07;;;;;;;4.97;0.85;;;9.30;99.90;;;;;;5127257;27;20035;-83
2022/12/07 12:08:50;;;;;;;3.92;1.23;;;9.00;99.90;;;;;;5116634;27;20118;-84
2022/12/07 12:11:32;;;;;;;5.32;0.98;;;9.10;99.90;;;;;;5115525;27;20066;-82
2022/12/07 12:14:01;;;;;;;7.05;1.00;;;9.20;99.90;;;;;;5108953;27;20046;-85
2022/12/07 12:16:57;;;;;;;4.13;1.00;;;8.70;99.90;;;;;;5112102;27;20027;-82
2022/12/07 12:19:33;;;;;;;3.25;0.52;;;8.40;99.90;;;;;;5107184;27;20054;-82
2022/12/07 12:22:18;;;;;;;4.25;1.20;;;8.10;99.90;;;;;;5113896;27;20042;-82
2022/12/07 12:24:50;;;;;;;2.45;0.60;;;7.90;99.90;;;;;;5119553;27;20532;-83
2022/12/07 12:27:32;;;;;;;7.82;0.73;;;7.70;99.90;;;;;;5127839;27;20509;-83
2022/12/07 12:30:03;;;;;;;3.55;0.73;;;7.50;99.90;;;;;;5106936;27;20074;-83
2022/12/07 12:32:45;;;;;;;2.72;0.68;;;7.50;99.90;;;;;;5118140;27;20044;-83
2022/12/07 12:35:28;;;;;;;6.28;0.60;;;7.40;99.90;;;;;;5106918;27;20054;-77
2022/12/07 12:37:55;;;;;;;3.90;0.68;;;7.30;99.90;;;;;;5117007;27;20060;-78
2022/12/07 12:40:20;;;;;;;;;;;7.20;99.90;;;;;;5121898;27;20038;-77
2022/12/07 12:42:48;;;;;;;3.92;0.57;;;7.30;99.90;;;;;;5116663;27;19915;-77
2022/12/07 12:45:32;;;;;;;3.95;0.98;;;7.30;99.90;;;;;;5093729;27;20604;-77
2022/12/07 12:48:24;;;;;;;3.63;0.73;;;7.40;99.90;;;;;;5114226;27;20451;-77
2022/12/07 12:51:28;;;;;;;3.67;0.60;;;7.40;99.90;;;;;;5117859;27;20563;-77
2022/12/07 12:54:13;;;;;;;6.65;0.88;;;7.50;99.90;;;;;;5093545;28;20040;-77
2022/12/07 12:57:01;;;;;;;4.07;0.63;;;7.50;99.90;;;;;;5090272;28;20118;-77
2022/12/07 12:59:43;;;;;;;4.80;0.68;;;7.40;99.90;;;;;;5110024;27;20035;-77
2022/12/07 13:02:25;;;;;;;4.63;0.70;;;7.20;99.90;;;;;;5078307;27;20035;-77
2022/12/07 13:05:01;;;;;;;4.18;0.55;;;6.90;99.90;;;;;;5097133;27;20297;-77
2022/12/07 13:07:51;;;;;;;3.40;0.88;;;6.60;99.90;;;;;;5114824;27;20084;-77
2022/12/07 13:10:28;;;;;;;4.05;0.80;;;6.40;99.90;;;;;;5116101;27;20119;-78
2022/12/07 13:13:02;;;;;;;3.20;0.50;;;6.40;99.90;;;;;;5116442;27;20509;-78
2022/12/07 13:15:46;;;;;;;3.75;0.50;;;6.40;99.90;;;;;;5108251;27;20035;-77
2022/12/07 13:18:36;;;;;;;5.97;0.88;;;6.40;99.90;;;;;;5117887;27;20039;-77
2022/12/07 13:21:08;;;;;;;2.17;0.40;;;7.10;99.90;;;;;;5099324;27;20539;-77
2022/12/07 13:23:46;;;;;;;3.20;0.40;;;6.30;99.90;;;;;;5093312;27;20035;-77
2022/12/07 13:26:36;;;;;;;1.40;0.50;;;6.40;99.90;;;;;;5115394;27;20528;-77